Time;durP1;ratioP1;P1;durP2;ratioP2;P2;SDS_P1;SDS_P2;PMS_P1;PMS_P2;Temp;Humidity;BMP_temperature;BMP_pressure;BME280_temperature;BME280_humidity;BME280_pressure;Samples;Min_cycle;Max_cycle;Signal;HPM_P1;HPM_P2
2023/03/08 00:01:33;;;;;;;12.60;7.85;;;;;;;6.15;49.44;99223.25;4182222;28;20037;-61
2023/03/08 00:03:36;;;;;;;12.25;7.78;;;;;;;6.13;49.43;99227.50;4179085;28;20044;-61
2023/03/08 00:05:40;;;;;;;13.00;8.15;;;;;;;6.08;49.47;99224.88;4177197;28;20039;-61
2023/03/08 00:07:43;;;;;;;13.30;8.40;;;;;;;6.04;49.63;99236.00;4178256;28;20037;-61
2023/03/08 00:09:45;;;;;;;15.13;8.23;;;;;;;6.07;49.50;99240.34;4164757;28;20053;-61
2023/03/08 00:11:48;;;;;;;16.25;8.43;;;;;;;6.05;49.57;99248.06;4178927;28;20601;-63
2023/03/08 00:13:51;;;;;;;14.35;8.38;;;;;;;6.00;49.30;99248.84;4174954;28;20091;-61
2023/03/08 00:15:58;;;;;;;16.35;8.45;;;;;;;5.97;50.35;99235.88;4178834;28;20037;-61
2023/03/08 00:18:01;;;;;;;14.55;8.48;;;;;;;6.08;50.07;99247.25;4178092;28;20402;-61
2023/03/08 00:20:05;;;;;;;16.17;9.27;;;;;;;6.16;49.84;99239.59;4175135;28;20052;-61
2023/03/08 00:22:11;;;;;;;15.30;8.77;;;;;;;6.24;49.87;99240.56;4160356;28;20071;-62
2023/03/08 00:24:15;;;;;;;17.33;8.73;;;;;;;6.34;49.69;99238.94;4182728;28;20102;-62
2023/03/08 00:26:18;;;;;;;12.77;7.90;;;;;;;6.28;49.63;99243.19;4177237;28;20032;-62
2023/03/08 00:28:21;;;;;;;13.60;8.85;;;;;;;6.17;49.34;99229.28;4175985;28;20038;-62
2023/03/08 00:30:27;;;;;;;14.23;8.40;;;;;;;6.29;49.63;99232.03;4166054;28;20136;-62
2023/03/08 00:32:30;;;;;;;15.00;8.05;;;;;;;6.28;49.40;99224.25;4163839;28;20068;-62
2023/03/08 00:34:33;;;;;;;11.82;7.63;;;;;;;6.25;49.53;99222.50;4164445;28;20083;-62
2023/03/08 00:36:36;;;;;;;11.55;7.85;;;;;;;6.30;49.75;99219.97;4166192;28;20045;-62
2023/03/08 00:38:40;;;;;;;12.27;7.13;;;;;;;6.34;49.44;99214.00;4163216;28;20038;-62
2023/03/08 00:40:43;;;;;;;11.38;7.07;;;;;;;6.32;49.84;99215.69;4171780;28;20136;-62
2023/03/08 00:42:46;;;;;;;13.35;6.95;;;;;;;6.41;49.48;99204.59;4146762;28;20038;-62
2023/03/08 00:44:49;;;;;;;13.35;6.88;;;;;;;6.42;49.99;99206.34;4183946;28;20148;-62
2023/03/08 00:46:52;;;;;;;11.30;7.40;;;;;;;6.43;49.95;99208.06;4162932;28;20395;-62
2023/03/08 00:48:55;;;;;;;11.57;7.40;;;;;;;6.44;49.61;99208.09;4146839;28;20072;-62
2023/03/08 00:50:58;;;;;;;11.32;7.40;;;;;;;6.37;49.51;99219.19;4170566;28;20041;-62
2023/03/08 00:53:00;;;;;;;11.93;7.30;;;;;;;6.33;49.67;99219.16;4170342;28;20041;-62
2023/03/08 00:55:05;;;;;;;11.88;6.75;;;;;;;6.31;49.88;99223.41;4178641;28;20091;-62
2023/03/08 00:57:08;;;;;;;;;;;;;;;6.24;50.28;99209.59;4167531;28;20415;-62
2023/03/08 00:59:11;;;;;;;11.85;7.82;;;;;;;6.28;49.91;99217.38;4162619;28;20017;-61
2023/03/08 01:01:16;;;;;;;12.27;7.80;;;;;;;6.37;50.07;99213.19;4178349;28;20098;-62
2023/03/08 01:03:22;;;;;;;11.70;6.38;;;;;;;6.30;50.19;99214.81;4183731;28;21386;-62
2023/03/08 01:05:25;;;;;;;12.13;7.88;;;;;;;6.36;49.78;99208.84;4165533;28;20048;-62
2023/03/08 01:07:28;;;;;;;13.07;7.80;;;;;;;6.24;50.85;99215.59;4169139;28;20398;-62
2023/03/08 01:09:31;;;;;;;12.77;7.60;;;;;;;6.25;50.62;99219.94;4171590;28;20037;-62
2023/03/08 01:11:36;;;;;;;11.40;7.80;;;;;;;6.29;50.68;99216.53;4173747;28;20591;-62
2023/03/08 01:13:39;;;;;;;14.23;7.22;;;;;;;6.26;50.53;99210.47;4178320;28;20037;-62
2023/03/08 01:15:42;;;;;;;13.63;7.55;;;;;;;6.27;50.68;99215.63;4188156;28;20032;-62
2023/03/08 01:17:45;;;;;;;13.02;7.97;;;;;;;6.24;51.27;99213.03;4171484;28;20045;-62
2023/03/08 01:19:48;;;;;;;10.43;6.97;;;;;;;6.25;51.28;99213.88;4191337;28;20033;-62
2023/03/08 01:21:52;;;;;;;12.82;8.38;;;;;;;6.23;51.06;99206.13;4176551;28;20037;-62
2023/03/08 01:23:56;;;;;;;12.68;7.68;;;;;;;6.21;50.88;99206.97;4172093;28;20049;-62
2023/03/08 01:26:00;;;;;;;11.95;7.80;;;;;;;6.20;51.00;99200.94;4177545;28;20124;-62
2023/03/08 01:28:04;;;;;;;13.48;7.68;;;;;;;6.35;50.74;99199.38;4155456;28;20044;-62
2023/03/08 01:30:08;;;;;;;13.75;8.18;;;;;;;6.33;50.71;99190.75;4167069;28;20048;-61
2023/03/08 01:32:11;;;;;;;13.75;8.23;;;;;;;6.29;51.12;99188.16;4165707;28;20049;-62
2023/03/08 01:34:15;;;;;;;11.13;7.60;;;;;;;6.34;50.92;99189.88;4166464;28;20030;-62
2023/03/08 01:36:20;;;;;;;13.23;7.55;;;;;;;6.24;51.22;99181.19;4142256;28;20072;-62
2023/03/08 01:38:23;;;;;;;12.80;7.45;;;;;;;6.29;51.31;99180.41;4172603;28;20112;-61
2023/03/08 01:40:26;;;;;;;10.57;7.00;;;;;;;6.30;51.33;99176.09;4184883;28;20045;-62
2023/03/08 01:42:29;;;;;;;16.00;9.07;;;;;;;6.34;50.68;99171.81;4164496;28;20394;-61
2023/03/08 01:44:53;;;;;;;13.02;8.10;;;;;;;6.36;50.41;99167.56;4183897;28;20037;-62
2023/03/08 01:46:55;;;;;;;15.98;9.38;;;;;;;6.36;50.49;99175.28;4170254;28;20191;-62
2023/03/08 01:49:15;;;;;;;12.23;8.10;;;;;;;6.36;50.52;99177.88;4169053;28;20129;-62
2023/03/08 01:51:24;;;;;;;13.32;8.25;;;;;;;6.39;50.49;99175.31;4164222;28;20466;-62
2023/03/08 01:53:27;;;;;;;14.07;8.32;;;;;;;6.22;50.56;99173.44;4184522;28;20474;-61
2023/03/08 01:55:30;;;;;;;10.45;7.05;;;;;;;6.24;50.25;99169.16;4182193;28;20040;-62
2023/03/08 01:57:35;;;;;;;13.25;7.70;;;;;;;6.29;50.12;99164.91;4178476;28;20037;-62
2023/03/08 01:59:39;;;;;;;13.50;9.13;;;;;;;6.28;49.77;99165.75;4180923;28;20047;-62
2023/03/08 02:01:43;;;;;;;16.30;9.00;;;;;;;6.25;50.12;99168.31;4166918;28;20040;-62
2023/03/08 02:03:47;;;;;;;11.55;7.63;;;;;;;6.24;50.29;99161.41;4162869;28;20033;-62
2023/03/08 02:05:53;;;;;;;17.00;9.80;;;;;;;6.25;49.57;99155.41;4160552;28;20033;-61
2023/03/08 02:07:57;;;;;;;11.63;7.72;;;;;;;6.28;49.70;99152.84;4177390;28;20033;-61
2023/03/08 02:10:04;;;;;;;13.43;7.82;;;;;;;6.18;49.90;99156.19;4172487;28;20458;-62
2023/03/08 02:12:11;;;;;;;11.75;7.85;;;;;;;6.15;50.35;99144.94;4145471;28;20529;-62
2023/03/08 02:14:14;;;;;;;13.13;8.27;;;;;;;6.17;50.27;99144.13;4166822;28;20396;-61
2023/03/08 02:16:21;;;;;;;13.88;8.57;;;;;;;6.13;49.70;99144.94;4143286;28;20163;-61
2023/03/08 02:18:25;;;;;;;14.73;8.02;;;;;;;6.21;49.72;99138.16;4147395;28;20061;-62
2023/03/08 02:20:30;;;;;;;12.35;7.15;;;;;;;6.17;50.00;99141.53;4165968;28;20052;-62
2023/03/08 02:22:39;;;;;;;15.52;9.63;;;;;;;6.16;49.48;99142.38;4166508;28;20043;-62
2023/03/08 02:24:42;;;;;;;11.30;7.85;;;;;;;6.29;49.71;99118.47;4177542;28;20116;-62
2023/03/08 02:26:47;;;;;;;13.25;8.20;;;;;;;6.29;49.69;99127.91;4178764;28;20071;-62
2023/03/08 02:28:49;;;;;;;10.75;7.03;;;;;;;6.21;49.21;99127.84;4161647;28;20040;-62
2023/03/08 02:30:55;;;;;;;11.73;7.40;;;;;;;6.17;49.48;99118.31;4180266;28;20071;-62
2023/03/08 02:32:58;;;;;;;13.83;7.83;;;;;;;6.16;49.60;99121.75;4177532;28;20128;-62
2023/03/08 02:35:03;;;;;;;13.15;7.72;;;;;;;6.13;49.19;99116.56;4167337;28;20295;-62
2023/03/08 02:37:08;;;;;;;14.77;8.00;;;;;;;6.11;49.60;99113.09;4169752;28;20339;-62
2023/03/08 02:39:12;;;;;;;14.43;8.00;;;;;;;6.07;49.73;99111.34;4146651;28;20583;-62
2023/03/08 02:41:15;;;;;;;12.32;8.48;;;;;;;5.96;49.75;99111.19;4158636;28;20045;-62
2023/03/08 02:43:21;;;;;;;12.02;7.97;;;;;;;5.89;49.58;99104.25;4164266;28;20048;-61
2023/03/08 02:45:24;;;;;;;13.05;7.68;;;;;;;5.76;49.77;99105.81;4162314;28;20111;-62
2023/03/08 02:47:27;;;;;;;15.00;8.07;;;;;;;5.71;50.09;99098.03;4176222;28;20526;-62
2023/03/08 02:49:30;;;;;;;14.80;8.10;;;;;;;5.74;49.88;99113.53;4180560;28;20033;-62
2023/03/08 02:51:32;;;;;;;12.52;7.07;;;;;;;5.66;50.04;99098.81;4162927;28;20562;-62
2023/03/08 02:53:35;;;;;;;15.57;8.27;;;;;;;5.50;50.21;99098.63;4168393;28;20041;-62
2023/03/08 02:55:39;;;;;;;21.48;8.70;;;;;;;5.53;50.48;99103.81;4182094;28;20483;-62
2023/03/08 02:57:45;;;;;;;20.83;8.40;;;;;;;5.47;50.45;99093.41;4160728;28;20063;-62
2023/03/08 02:59:48;;;;;;;16.77;9.57;;;;;;;5.50;50.55;99092.59;4157470;28;20442;-61
2023/03/08 03:01:52;;;;;;;19.15;8.95;;;;;;;5.59;50.51;99083.28;4158584;28;20377;-62
2023/03/08 03:03:56;;;;;;;15.55;8.68;;;;;;;5.70;50.49;99074.81;4175339;28;20047;-62
2023/03/08 03:05:59;;;;;;;17.38;10.30;;;;;;;5.68;50.36;99091.94;4178556;28;20124;-62
2023/03/08 03:08:06;;;;;;;15.93;8.38;;;;;;;5.66;50.16;99083.34;4163987;28;20395;-62
2023/03/08 03:10:12;;;;;;;17.70;9.00;;;;;;;5.79;50.27;99087.78;4160244;28;20048;-62
2023/03/08 03:12:18;;;;;;;13.27;8.27;;;;;;;5.79;50.64;99077.47;4162130;28;20034;-62
2023/03/08 03:14:21;;;;;;;15.23;8.05;;;;;;;5.92;50.61;99078.47;4181810;28;20048;-62
2023/03/08 03:16:24;;;;;;;10.95;7.05;;;;;;;5.93;50.64;99082.78;4167591;28;20091;-62
2023/03/08 03:18:27;;;;;;;13.45;8.10;;;;;;;5.94;50.70;99076.75;4169456;28;20037;-62
2023/03/08 03:20:31;;;;;;;12.88;8.38;;;;;;;5.98;50.76;99073.41;4187163;28;20029;-62
2023/03/08 03:22:34;;;;;;;13.98;8.57;;;;;;;6.04;50.75;99070.88;4189169;28;20037;-62
2023/03/08 03:24:38;;;;;;;11.05;6.90;;;;;;;6.01;50.99;99075.16;4160029;28;20542;-62
2023/03/08 03:26:42;;;;;;;12.18;7.78;;;;;;;6.04;50.85;99067.44;4180049;28;20098;-62
2023/03/08 03:28:47;;;;;;;12.80;7.22;;;;;;;5.97;51.44;99078.53;4148935;28;20034;-62
2023/03/08 03:30:50;;;;;;;12.55;7.90;;;;;;;6.00;51.31;99076.00;4167983;28;20079;-62
2023/03/08 03:32:53;;;;;;;13.05;7.43;;;;;;;5.89;51.63;99081.88;4170968;28;20457;-62
2023/03/08 03:35:01;;;;;;;15.55;7.82;;;;;;;5.88;51.74;99080.16;4173860;28;20045;-63
2023/03/08 03:37:04;;;;;;;13.27;8.23;;;;;;;5.87;51.76;99081.00;4154164;28;20037;-62
2023/03/08 03:39:07;;;;;;;12.88;7.88;;;;;;;5.90;51.79;99080.19;4165694;28;20188;-62
2023/03/08 03:41:14;;;;;;;12.38;7.82;;;;;;;5.90;51.95;99072.44;4161655;28;20037;-62
2023/03/08 03:43:17;;;;;;;13.68;8.32;;;;;;;5.95;51.11;99061.31;4179390;28;20403;-62
2023/03/08 03:45:21;;;;;;;13.45;7.57;;;;;;;5.86;51.72;99061.22;4163514;28;20045;-62
2023/03/08 03:47:24;;;;;;;12.30;7.35;;;;;;;5.78;52.29;99057.69;4165373;28;20045;-62
2023/03/08 03:49:31;;;;;;;11.98;8.00;;;;;;;5.81;52.07;99057.75;4169574;28;20063;-62
2023/03/08 03:51:34;;;;;;;12.52;7.72;;;;;;;5.80;51.66;99053.44;4150448;28;20048;-62
2023/03/08 03:53:52;;;;;;;13.32;7.95;;;;;;;5.71;51.73;99063.63;4165797;28;20041;-62
2023/03/08 03:56:01;;;;;;;14.63;8.38;;;;;;;5.61;51.58;99060.09;4157933;28;20407;-62
2023/03/08 03:58:05;;;;;;;15.32;9.00;;;;;;;5.68;51.38;99056.75;4177782;28;20364;-62
2023/03/08 04:00:09;;;;;;;13.68;8.32;;;;;;;5.72;51.68;99055.03;4143750;28;20455;-62
2023/03/08 04:02:24;;;;;;;12.90;8.25;;;;;;;5.75;52.10;99047.34;4166272;28;20475;-62
2023/03/08 04:04:32;;;;;;;13.27;8.15;;;;;;;5.71;52.34;99043.00;4165186;28;20037;-62
2023/03/08 04:06:36;;;;;;;13.95;7.75;;;;;;;5.69;52.42;99048.13;4165067;28;20041;-62
2023/03/08 04:08:42;;;;;;;14.98;8.90;;;;;;;5.73;52.54;99044.75;4162865;28;20053;-62
2023/03/08 04:10:49;;;;;;;13.35;8.40;;;;;;;5.75;52.83;99040.50;4161103;28;20120;-63
2023/03/08 04:12:52;;;;;;;12.80;7.35;;;;;;;5.72;52.58;99042.16;4182172;28;20497;-62
2023/03/08 04:14:56;;;;;;;;;;;;;;;5.64;52.46;99042.06;4162295;28;20037;-62
2023/03/08 04:17:03;;;;;;;14.23;8.55;;;;;;;5.70;52.53;99042.13;4164618;28;19921;-62
2023/03/08 04:19:14;;;;;;;12.07;7.65;;;;;;;5.74;52.41;99050.78;4161217;28;20026;-62
2023/03/08 04:21:24;;;;;;;15.18;8.32;;;;;;;5.73;52.45;99051.63;4187389;28;20103;-62
2023/03/08 04:23:29;;;;;;;12.27;7.93;;;;;;;5.69;52.15;99049.84;4161521;28;20129;-62
2023/03/08 04:25:32;;;;;;;12.65;8.32;;;;;;;5.74;52.22;99045.63;4163671;28;20510;-62
2023/03/08 04:27:36;;;;;;;16.55;9.63;;;;;;;5.71;52.03;99038.72;4172271;28;20044;-62
2023/03/08 04:29:39;;;;;;;13.40;8.15;;;;;;;5.70;52.42;99036.13;4165937;28;20080;-62
2023/03/08 04:31:42;;;;;;;15.05;7.93;;;;;;;5.70;52.74;99028.41;4159067;28;20069;-61
2023/03/08 04:33:49;;;;;;;16.67;9.27;;;;;;;5.70;52.97;99028.41;4178366;28;20048;-62
2023/03/08 04:35:54;;;;;;;12.60;8.88;;;;;;;5.68;53.25;99027.50;4169529;28;20040;-62
2023/03/08 04:37:59;;;;;;;15.55;9.20;;;;;;;5.69;53.11;99022.34;4165175;28;20033;-61
2023/03/08 04:40:08;;;;;;;12.68;7.97;;;;;;;5.69;53.30;99024.06;4172248;28;20068;-62
2023/03/08 04:42:16;;;;;;;14.00;9.30;;;;;;;5.77;52.86;99015.56;4155666;28;20065;-62
2023/03/08 04:44:20;;;;;;;17.42;9.80;;;;;;;5.73;53.13;99008.66;4159876;28;20065;-62
2023/03/08 04:46:27;;;;;;;14.63;8.48;;;;;;;5.75;53.14;99014.69;4164427;28;20124;-62
2023/03/08 04:48:31;;;;;;;18.48;9.93;;;;;;;5.73;52.94;99003.50;4164792;28;20039;-62
2023/03/08 04:50:33;;;;;;;16.08;8.88;;;;;;;5.71;53.10;99005.19;4155913;28;20724;-62
2023/03/08 04:52:39;;;;;;;16.83;10.40;;;;;;;5.74;52.86;99000.06;4176476;28;20060;-62
2023/03/08 04:54:42;;;;;;;16.25;9.52;;;;;;;5.72;52.87;99006.06;4171060;28;20044;-63
2023/03/08 04:57:00;;;;;;;13.38;8.48;;;;;;;5.70;52.95;98994.88;4164500;28;20105;-62
2023/03/08 04:59:04;;;;;;;14.15;9.43;;;;;;;5.64;52.69;98993.09;4175096;28;20060;-62
2023/03/08 05:01:12;;;;;;;14.80;9.80;;;;;;;5.69;53.05;98998.28;4162073;28;20060;-62
2023/03/08 05:03:16;;;;;;;17.23;10.38;;;;;;;5.72;53.03;98976.00;4163715;28;20055;-62
2023/03/08 05:05:19;;;;;;;15.20;10.30;;;;;;;5.63;53.30;98975.88;4149470;28;20090;-62
2023/03/08 05:07:22;;;;;;;15.30;10.00;;;;;;;5.64;52.96;98977.63;4154323;28;20045;-62
2023/03/08 05:09:29;;;;;;;17.00;10.85;;;;;;;5.62;53.23;98974.16;4166928;28;20033;-62
2023/03/08 05:11:32;;;;;;;18.58;10.60;;;;;;;5.55;53.22;98973.25;4170622;28;20592;-62
2023/03/08 05:13:38;;;;;;;17.23;10.55;;;;;;;5.65;53.50;98981.06;4177484;28;20041;-62
2023/03/08 05:15:43;;;;;;;18.23;10.25;;;;;;;5.73;53.07;98976.84;4159688;28;20049;-62
2023/03/08 05:17:46;;;;;;;16.50;9.65;;;;;;;5.66;53.36;98987.94;4159825;28;20049;-62
2023/03/08 05:19:49;;;;;;;15.23;9.82;;;;;;;5.79;53.36;98979.47;4177882;28;20040;-62
2023/03/08 05:21:56;;;;;;;21.10;11.07;;;;;;;5.79;53.00;98983.78;4168641;28;20124;-62
2023/03/08 05:24:00;;;;;;;17.88;11.20;;;;;;;5.71;52.47;98987.16;4178300;28;20437;-62
2023/03/08 05:26:10;;;;;;;21.02;11.85;;;;;;;5.68;52.98;98983.66;4174704;28;21013;-62
2023/03/08 05:28:14;;;;;;;20.63;11.75;;;;;;;5.67;52.98;98989.69;4176849;22;20132;-64
2023/03/08 05:30:19;;;;;;;22.83;12.38;;;;;;;5.55;52.64;98993.00;4160535;28;20045;-63
2023/03/08 05:32:22;;;;;;;24.67;12.32;;;;;;;5.49;53.43;98983.50;4165066;28;20054;-63
2023/03/08 05:34:26;;;;;;;17.23;11.48;;;;;;;5.54;53.30;98992.13;4162492;28;20554;-64
2023/03/08 05:36:29;;;;;;;22.70;11.40;;;;;;;5.47;53.23;98980.00;4163522;28;20042;-63
2023/03/08 05:38:33;;;;;;;19.17;11.15;;;;;;;5.54;53.65;98981.81;4147290;28;20081;-63
2023/03/08 05:40:40;;;;;;;19.92;11.23;;;;;;;5.58;53.48;98978.44;4164591;28;20410;-63
2023/03/08 05:42:44;;;;;;;20.98;11.32;;;;;;;5.63;53.48;98955.25;4163359;28;20037;-63
2023/03/08 05:44:49;;;;;;;18.35;11.63;;;;;;;5.64;53.21;98951.00;4164088;28;20553;-63
2023/03/08 05:46:56;;;;;;;19.45;11.35;;;;;;;5.63;53.47;98954.41;4165760;28;20029;-63
2023/03/08 05:49:00;;;;;;;18.33;11.15;;;;;;;5.51;53.50;98953.44;4166265;28;20033;-63
2023/03/08 05:51:08;;;;;;;22.17;13.55;;;;;;;5.59;53.64;98948.34;4155353;28;20037;-63
2023/03/08 05:53:11;;;;;;;;;;;;;;;5.52;53.81;98947.44;4165127;28;20038;-63
2023/03/08 05:55:14;;;;;;;21.73;11.65;;;;;;;5.52;53.62;98954.28;4161363;28;19932;-63
2023/03/08 05:57:18;;;;;;;20.85;11.05;;;;;;;5.54;53.55;98940.56;4158316;28;20424;-63
2023/03/08 05:59:23;;;;;;;18.38;11.32;;;;;;;5.53;53.90;98933.69;4148002;28;20077;-63
2023/03/08 06:01:40;;;;;;;16.65;11.32;;;;;;;5.54;54.06;98938.00;4162134;28;20442;-63
2023/03/08 06:03:54;;;;;;;21.95;14.25;;;;;;;5.58;53.48;98932.03;4164558;28;20060;-63
2023/03/08 06:05:59;;;;;;;19.40;11.45;;;;;;;5.56;53.92;98928.59;4164631;28;20128;-63
2023/03/08 06:08:02;;;;;;;18.55;11.43;;;;;;;5.49;54.10;98924.22;4164738;28;20080;-63
2023/03/08 06:10:06;;;;;;;23.42;11.07;;;;;;;5.49;54.09;98920.75;4161539;28;20042;-63
2023/03/08 06:12:09;;;;;;;17.48;11.27;;;;;;;5.46;54.53;98921.59;4162360;28;20045;-63
2023/03/08 06:14:12;;;;;;;17.52;10.88;;;;;;;5.54;54.54;98914.78;4162135;28;20400;-63
2023/03/08 06:16:17;;;;;;;16.02;9.63;;;;;;;5.52;54.34;98913.94;4162957;28;20147;-63
2023/03/08 06:18:20;;;;;;;19.58;12.57;;;;;;;5.60;54.68;98914.00;4158476;28;20079;-63
2023/03/08 06:20:23;;;;;;;16.83;11.75;;;;;;;5.60;54.34;98916.56;4162300;28;20491;-63
2023/03/08 06:22:27;;;;;;;18.20;10.98;;;;;;;5.56;54.25;98917.38;4145622;28;20120;-63
2023/03/08 06:24:31;;;;;;;17.83;11.27;;;;;;;5.59;54.55;98917.41;4163625;28;20037;-63
2023/03/08 06:26:36;;;;;;;17.90;12.00;;;;;;;5.66;54.55;98915.75;4135566;28;20045;-63
2023/03/08 06:28:40;;;;;;;17.40;11.05;;;;;;;5.68;54.62;98911.47;4180703;28;20047;-63
2023/03/08 06:30:44;;;;;;;;;;;;;;;5.69;54.28;98903.75;4159201;28;20597;-63
2023/03/08 06:32:48;;;;;;;19.83;11.38;;;;;;;5.74;54.32;98902.09;4164337;28;19948;-64
2023/03/08 06:34:51;;;;;;;16.25;10.07;;;;;;;5.68;54.47;98891.72;4162525;28;20111;-63
2023/03/08 06:36:58;;;;;;;19.17;11.93;;;;;;;5.68;54.28;98886.56;4159723;28;20037;-63
2023/03/08 06:39:02;;;;;;;19.63;12.50;;;;;;;5.70;54.28;98894.31;4161654;28;20037;-63
2023/03/08 06:41:07;;;;;;;21.00;10.18;;;;;;;5.69;54.51;98902.91;4155580;28;20037;-63
2023/03/08 06:43:10;;;;;;;20.25;11.00;;;;;;;5.68;53.82;98891.72;4165044;28;20046;-63
2023/03/08 06:45:13;;;;;;;20.52;11.57;;;;;;;5.64;54.13;98889.13;4160305;28;20041;-63
2023/03/08 06:47:16;;;;;;;22.02;10.65;;;;;;;5.60;54.36;98873.59;4161450;28;20117;-63
2023/03/08 06:49:20;;;;;;;18.48;10.60;;;;;;;5.67;54.22;98886.56;4164103;28;20044;-63
2023/03/08 06:51:23;;;;;;;18.70;9.80;;;;;;;5.64;54.13;98884.81;4145527;28;20057;-63
2023/03/08 06:53:26;;;;;;;17.20;10.85;;;;;;;5.67;54.50;98878.84;4163009;28;20045;-63
2023/03/08 06:55:35;;;;;;;19.08;11.68;;;;;;;5.66;54.55;98883.09;4163741;28;20061;-64
2023/03/08 06:57:38;;;;;;;17.83;10.32;;;;;;;5.74;54.28;98878.03;4147353;28;20412;-64
2023/03/08 06:59:41;;;;;;;16.50;10.23;;;;;;;5.66;54.56;98877.94;4157400;28;20048;-64
2023/03/08 07:01:44;;;;;;;21.02;10.68;;;;;;;5.70;54.19;98873.69;4156251;28;20029;-65
2023/03/08 07:14:34;;;;;;;15.88;11.07;;;;;;;5.65;54.48;98854.72;4697749;24;21766;-57
2023/03/08 07:16:43;;;;;;;19.92;11.68;;;;;;;5.70;54.42;98847.91;3981291;29;20518;-59
2023/03/08 07:19:06;;;;;;;14.93;9.82;;;;;;;5.72;54.71;98839.34;3887621;29;20446;-67
2023/03/08 07:21:10;;;;;;;18.75;10.90;;;;;;;5.75;53.50;98835.91;3801153;29;20449;-65
2023/03/08 07:23:14;;;;;;;17.13;10.10;;;;;;;5.70;54.06;98837.59;3790874;29;20900;-67
2023/03/08 07:25:19;;;;;;;20.10;10.48;;;;;;;5.73;54.50;98837.63;3822598;29;20324;-66
2023/03/08 07:27:22;;;;;;;15.40;9.60;;;;;;;5.75;54.50;98829.06;3981292;29;20254;-70
2023/03/08 07:29:25;;;;;;;16.75;10.45;;;;;;;5.84;54.95;98819.63;3989658;23;20058;-71
2023/03/08 07:31:31;;;;;;;18.90;11.73;;;;;;;5.86;55.11;98818.78;3978429;29;20102;-71
2023/03/08 07:33:34;;;;;;;19.88;11.88;;;;;;;5.90;55.96;98830.88;3977636;29;20050;-72
2023/03/08 07:35:37;;;;;;;15.88;10.70;;;;;;;5.79;56.34;98821.34;3959472;29;20108;-71
2023/03/08 07:37:44;;;;;;;15.88;10.88;;;;;;;5.55;57.12;98818.59;3975109;29;20410;-72
2023/03/08 07:39:47;;;;;;;16.40;10.13;;;;;;;5.34;58.50;98810.66;3974355;29;20047;-71
2023/03/08 07:41:50;;;;;;;17.85;11.63;;;;;;;5.38;59.60;98818.44;3971022;29;20516;-71
2023/03/08 07:43:52;;;;;;;18.67;11.13;;;;;;;5.35;61.08;98802.09;3974933;29;20459;-71
2023/03/08 07:46:01;;;;;;;15.88;11.30;;;;;;;5.27;61.37;98811.47;3980185;29;20236;-72
2023/03/08 07:48:05;;;;;;;;;;;;;;;5.04;62.31;98809.56;3977721;29;20038;-72
2023/03/08 07:50:09;;;;;;;17.83;11.23;;;;;;;4.93;62.88;98811.16;3972752;29;19971;-71
2023/03/08 07:52:12;;;;;;;18.30;11.80;;;;;;;5.02;63.79;98806.06;3976631;29;20038;-71
2023/03/08 07:54:15;;;;;;;20.23;10.88;;;;;;;5.00;63.62;98797.50;3983592;29;20047;-71
2023/03/08 07:56:18;;;;;;;18.13;11.75;;;;;;;5.03;64.07;98787.22;3985978;29;20043;-71
2023/03/08 07:58:21;;;;;;;23.30;11.90;;;;;;;5.01;64.56;98788.91;3975953;29;20111;-71
2023/03/08 08:00:25;;;;;;;21.13;11.48;;;;;;;5.07;64.64;98783.81;3977106;29;20111;-70
2023/03/08 08:02:28;;;;;;;20.50;13.43;;;;;;;5.15;65.08;98777.00;3975212;29;20050;-71
2023/03/08 08:04:34;;;;;;;21.02;12.18;;;;;;;5.08;65.37;98785.53;3976048;29;20058;-70
2023/03/08 08:06:40;;;;;;;20.80;11.85;;;;;;;5.07;65.67;98778.66;3978030;29;20050;-71
2023/03/08 08:08:42;;;;;;;19.88;12.02;;;;;;;5.10;66.52;98767.53;3976082;29;20577;-71
2023/03/08 08:10:45;;;;;;;17.45;11.65;;;;;;;5.09;66.37;98761.50;3960009;29;20057;-71
2023/03/08 08:12:48;;;;;;;18.35;12.38;;;;;;;5.06;66.13;98751.19;3974756;29;20046;-71
2023/03/08 08:14:51;;;;;;;20.98;13.20;;;;;;;5.10;66.62;98744.34;3974196;29;20057;-71
2023/03/08 08:16:54;;;;;;;23.38;13.73;;;;;;;4.97;67.18;98741.66;3973143;29;20038;-70
2023/03/08 08:18:57;;;;;;;17.67;11.88;;;;;;;4.85;67.55;98739.00;3980371;29;20039;-70
2023/03/08 08:21:03;;;;;;;19.73;13.45;;;;;;;4.86;68.26;98728.69;3969144;29;20057;-70
2023/03/08 08:23:07;;;;;;;23.98;13.57;;;;;;;4.89;68.32;98723.56;3974117;29;20159;-70
2023/03/08 08:25:11;;;;;;;21.13;13.90;;;;;;;4.96;68.02;98726.19;3975018;29;20078;-70
2023/03/08 08:27:14;;;;;;;19.40;12.98;;;;;;;4.94;68.13;98722.75;3995334;29;20039;-71
2023/03/08 08:29:17;;;;;;;24.35;13.18;;;;;;;4.86;68.56;98718.41;3977195;29;20043;-70
2023/03/08 08:31:22;;;;;;;21.67;14.02;;;;;;;4.90;68.83;98719.28;3977884;29;20047;-70
2023/03/08 08:33:25;;;;;;;20.88;12.52;;;;;;;4.90;68.76;98707.25;3978998;29;20057;-70
2023/03/08 08:35:28;;;;;;;18.90;12.63;;;;;;;4.91;69.15;98705.56;3983389;29;20042;-70
2023/03/08 08:37:45;;;;;;;20.75;13.00;;;;;;;4.97;68.91;98702.19;3982491;29;20378;-70
2023/03/08 08:39:48;;;;;;;25.17;14.75;;;;;;;4.97;69.09;98707.34;3979317;29;20103;-70
2023/03/08 08:41:51;;;;;;;23.50;14.65;;;;;;;5.03;69.16;98704.81;3976987;29;20082;-71
2023/03/08 08:43:57;;;;;;;21.45;13.70;;;;;;;5.00;69.10;98689.31;3975849;29;20142;-70
2023/03/08 08:46:01;;;;;;;21.35;14.68;;;;;;;4.96;69.43;98692.72;3983346;29;20054;-70
2023/03/08 08:48:04;;;;;;;21.90;13.57;;;;;;;5.01;69.15;98684.19;3983957;29;20066;-70
2023/03/08 08:50:08;;;;;;;24.73;15.25;;;;;;;4.99;69.10;98682.44;3975982;29;20065;-70
2023/03/08 08:52:11;;;;;;;20.80;14.57;;;;;;;4.90;69.79;98673.78;3975942;29;20046;-70
2023/03/08 08:54:15;;;;;;;26.02;15.88;;;;;;;4.85;69.98;98669.47;3974505;29;20125;-70
2023/03/08 08:56:20;;;;;;;22.17;14.10;;;;;;;4.75;70.06;98655.66;3976325;29;20047;-70
2023/03/08 08:58:34;;;;;;;23.00;14.23;;;;;;;4.67;70.20;98644.41;3953872;29;20055;-70
2023/03/08 09:00:37;;;;;;;18.90;13.70;;;;;;;4.65;70.49;98643.56;3973439;29;20039;-70
2023/03/08 09:02:40;;;;;;;21.27;14.40;;;;;;;4.71;70.43;98643.59;3963659;29;20050;-70
2023/03/08 09:04:43;;;;;;;22.92;14.80;;;;;;;4.63;70.66;98632.38;3980576;29;20071;-70
2023/03/08 09:06:47;;;;;;;20.63;13.60;;;;;;;4.65;70.91;98643.56;3977828;29;20050;-70
2023/03/08 09:08:50;;;;;;;19.35;13.18;;;;;;;4.54;70.83;98654.63;3969904;29;20049;-70
2023/03/08 09:10:54;;;;;;;21.77;14.20;;;;;;;4.52;70.89;98651.16;3974871;29;20046;-70
2023/03/08 09:12:58;;;;;;;21.40;14.02;;;;;;;4.65;70.67;98638.41;3979104;29;20041;-70
2023/03/08 09:15:01;;;;;;;22.05;13.30;;;;;;;4.54;70.80;98639.19;3977767;29;20055;-69
2023/03/08 09:17:05;;;;;;;28.00;15.50;;;;;;;4.57;70.72;98628.06;3979276;29;20458;-70
2023/03/08 09:19:08;;;;;;;20.58;13.00;;;;;;;4.50;70.89;98627.13;3975921;29;20042;-70
2023/03/08 09:21:11;;;;;;;19.50;13.02;;;;;;;4.51;70.96;98610.84;3973356;29;20138;-70
2023/03/08 09:23:14;;;;;;;24.38;15.20;;;;;;;4.48;71.12;98612.50;3977756;29;20042;-70
2023/03/08 09:25:18;;;;;;;18.58;13.38;;;;;;;4.50;71.09;98601.41;3975575;29;20053;-68
2023/03/08 09:27:22;;;;;;;20.35;13.27;;;;;;;4.49;71.25;98609.09;3978169;29;20055;-68
2023/03/08 09:29:25;;;;;;;16.88;12.07;;;;;;;4.63;70.90;98614.34;3976894;29;20094;-68
2023/03/08 09:31:28;;;;;;;21.83;14.13;;;;;;;4.67;71.24;98618.69;3977774;29;20058;-68
2023/03/08 09:33:31;;;;;;;21.58;12.70;;;;;;;4.64;71.04;98608.38;3977880;29;20485;-67
2023/03/08 09:35:34;;;;;;;19.63;13.02;;;;;;;4.63;71.09;98596.34;3978235;29;20047;-67
2023/03/08 09:37:37;;;;;;;18.67;12.25;;;;;;;4.53;70.98;98595.41;3991620;29;20099;-67
2023/03/08 09:39:40;;;;;;;17.90;11.85;;;;;;;4.46;71.34;98597.06;3975304;29;20047;-68
2023/03/08 09:41:52;;;;;;;19.20;12.32;;;;;;;4.44;72.07;98596.19;3985606;29;20047;-67
2023/03/08 09:44:11;;;;;;;16.00;11.20;;;;;;;4.46;72.09;98579.06;3962080;29;20131;-68
2023/03/08 09:46:18;;;;;;;17.90;11.35;;;;;;;4.52;71.62;98575.69;3981076;29;20106;-67
2023/03/08 09:48:26;;;;;;;16.40;10.73;;;;;;;4.50;71.67;98575.66;3990453;29;20565;-68
2023/03/08 09:50:39;;;;;;;17.42;10.90;;;;;;;4.52;71.31;98568.81;3974454;29;20039;-68
2023/03/08 09:52:47;;;;;;;22.58;12.18;;;;;;;4.45;72.28;98576.47;3978020;29;20684;-68
2023/03/08 09:54:51;;;;;;;20.33;11.52;;;;;;;4.46;72.55;98566.19;3975315;29;20130;-67
2023/03/08 09:56:55;;;;;;;20.13;12.15;;;;;;;4.62;72.25;98568.91;3971838;29;20046;-67